Terminal Aerodrome Forecast
Issued by NWS

Home | Current Version | Previous Version | Text Only | Print | Product List | Glossary On
Versions: 1 2 3 4 5 6 7 8 9 10 11 12 13 14 15 16 17 18 19 20 21 22 23 24 25 26 27 28 29
000
FTUS42 KCAE 240111 AAA
TAFDNL
TAF AMD
KDNL 240111Z 2401/2424 03010KT P6SM -SHRA VCTS BKN009CB OVC015
      TEMPO 2401/2403 1SM +TSRA
     FM240300 10010KT 4SM -SHRA VCTS OVC020CB
     FM240900 20005KT 4SM -SHRA VCTS OVC015CB
     FM241500 34005KT P6SM VCSH OVC020
     FM241800 33009KT P6SM VCSH OVC025=

USA.gov is the U.S. government's official web portal to all federal, state and local government web resources and services.